Terminal Aerodrome Forecast
Issued by NWS

Home | Current Version | Previous Version | Text Only | Print | Product List | Glossary On
Versions: 1 2 3 4 5 6 7 8 9 10 11 12 13 14 15 16
000
FTUS44 KMAF 201100
TAFPEQ
TAF
KPEQ 201120Z 2012/2112 23005KT P6SM FEW250
     FM201600 21008G18KT P6SM SCT060 SCT250
     FM210200 13008KT P6SM FEW050 FEW200=

USA.gov is the U.S. government's official web portal to all federal, state and local government web resources and services.